Time;durP1;ratioP1;P1;durP2;ratioP2;P2;SDS_P1;SDS_P2;PMS_P1;PMS_P2;Temp;Humidity;BMP_temperature;BMP_pressure;BME280_temperature;BME280_humidity;BME280_pressure;Samples;Min_cycle;Max_cycle;Signal;HPM_P1;HPM_P2
2021/01/08 00:01:45;;;;;;;0.20;0.20;;;;;;;;;;5078865;28;20533;-78
2021/01/08 00:04:12;;;;;;;0.30;0.30;;;;;;;;;;5079549;28;20528;-77
2021/01/08 00:06:39;;;;;;;0.37;0.37;;;;;;;;;;5080210;28;20205;-78
2021/01/08 00:09:05;;;;;;;0.30;0.30;;;;;;;;;;5094274;28;20223;-78
2021/01/08 00:11:35;;;;;;;0.30;0.30;;;;;;;;;;5095617;28;20490;-77
2021/01/08 00:14:01;;;;;;;0.30;0.30;;;;;;;;;;5097199;28;20207;-78
2021/01/08 00:16:32;;;;;;;0.30;0.30;;;;;;;;;;5083838;28;20203;-77
2021/01/08 00:18:58;;;;;;;0.30;0.30;;;;;;;;;;5093882;28;20233;-78
2021/01/08 00:21:34;;;;;;;0.30;0.30;;;;;;;;;;5090564;28;20202;-77
2021/01/08 00:24:01;;;;;;;0.30;0.30;;;;;;;;;;5084284;28;20500;-77
2021/01/08 00:26:27;;;;;;;0.30;0.30;;;;;;;;;;5078482;28;20226;-78
2021/01/08 00:28:54;;;;;;;0.27;0.27;;;;;;;;;;5078903;28;20195;-77
2021/01/08 00:31:20;;;;;;;0.20;0.20;;;;;;;;;;5080992;28;20275;-77
2021/01/08 00:33:47;;;;;;;0.30;0.30;;;;;;;;;;5082326;28;20234;-77
2021/01/08 00:36:14;;;;;;;0.20;0.20;;;;;;;;;;5078718;28;20502;-78
2021/01/08 00:38:40;;;;;;;0.27;0.27;;;;;;;;;;5074396;28;20242;-78
2021/01/08 00:41:07;;;;;;;0.20;0.20;;;;;;;;;;5064541;28;20394;-78
2021/01/08 00:43:33;;;;;;;0.20;0.20;;;;;;;;;;5079164;28;20348;-78
2021/01/08 00:46:00;;;;;;;0.30;0.30;;;;;;;;;;5078129;28;20232;-78
2021/01/08 00:48:26;;;;;;;0.83;0.83;;;;;;;;;;5079063;28;20436;-78
2021/01/08 00:51:00;;;;;;;1.13;1.13;;;;;;;;;;5080621;28;20348;-78
2021/01/08 00:53:26;;;;;;;0.60;0.60;;;;;;;;;;5099299;28;20285;-78
2021/01/08 00:55:52;;;;;;;0.27;0.27;;;;;;;;;;5078765;28;20249;-77
2021/01/08 00:58:22;;;;;;;5.20;2.20;;;;;;;;;;5096919;28;20218;-78
2021/01/08 01:00:48;;;;;;;0.20;0.20;;;;;;;;;;5091427;28;20434;-78
2021/01/08 01:03:15;;;;;;;0.20;0.20;;;;;;;;;;5079903;28;20269;-78
2021/01/08 01:05:41;;;;;;;0.63;0.63;;;;;;;;;;5082524;28;20198;-78
2021/01/08 01:08:09;;;;;;;0.30;0.30;;;;;;;;;;5100660;28;20207;-78
2021/01/08 01:10:35;;;;;;;0.30;0.30;;;;;;;;;;5076687;28;20209;-78
2021/01/08 01:13:02;;;;;;;3.40;1.90;;;;;;;;;;5071799;28;20248;-78
2021/01/08 01:15:28;;;;;;;0.27;0.27;;;;;;;;;;5076563;28;20230;-78
2021/01/08 01:17:55;;;;;;;0.30;0.30;;;;;;;;;;5066321;28;20290;-78
2021/01/08 01:20:21;;;;;;;0.30;0.30;;;;;;;;;;5081508;28;20533;-78
2021/01/08 01:22:48;;;;;;;1.80;1.80;;;;;;;;;;5077889;28;20509;-78
2021/01/08 01:25:15;;;;;;;0.20;0.20;;;;;;;;;;5075805;28;20357;-78
2021/01/08 01:27:42;;;;;;;1.50;1.33;;;;;;;;;;5070342;28;20197;-78
2021/01/08 01:30:09;;;;;;;1.03;1.03;;;;;;;;;;5093979;28;20206;-78
2021/01/08 01:32:35;;;;;;;0.20;0.20;;;;;;;;;;5098737;28;20371;-78
2021/01/08 01:35:02;;;;;;;8.03;4.50;;;;;;;;;;5078768;28;20502;-78
2021/01/08 01:37:28;;;;;;;0.30;0.30;;;;;;;;;;5077652;28;20218;-78
2021/01/08 01:39:55;;;;;;;0.27;0.27;;;;;;;;;;5081708;28;20253;-77
2021/01/08 01:42:22;;;;;;;0.97;0.97;;;;;;;;;;5080069;28;20233;-78
2021/01/08 01:44:48;;;;;;;0.30;0.30;;;;;;;;;;5081047;28;20257;-77
2021/01/08 01:47:15;;;;;;;0.30;0.30;;;;;;;;;;5081682;28;20201;-78
2021/01/08 01:49:41;;;;;;;0.20;0.20;;;;;;;;;;5098943;28;20509;-78
2021/01/08 01:52:08;;;;;;;0.30;0.30;;;;;;;;;;5096991;28;20560;-78
2021/01/08 01:54:34;;;;;;;0.30;0.30;;;;;;;;;;5063077;28;20203;-78
2021/01/08 01:57:01;;;;;;;0.20;0.20;;;;;;;;;;5078371;28;20234;-78
2021/01/08 01:59:28;;;;;;;0.20;0.20;;;;;;;;;;5092092;28;20300;-78
2021/01/08 02:01:55;;;;;;;0.30;0.30;;;;;;;;;;5072839;28;20512;-78
2021/01/08 02:04:22;;;;;;;0.30;0.30;;;;;;;;;;5098926;28;20486;-78
2021/01/08 02:06:50;;;;;;;0.40;0.40;;;;;;;;;;5070359;28;20199;-78
2021/01/08 02:09:18;;;;;;;0.63;0.63;;;;;;;;;;5095741;28;20265;-78
2021/01/08 02:11:46;;;;;;;0.30;0.30;;;;;;;;;;5092650;28;20272;-78
2021/01/08 02:14:15;;;;;;;0.30;0.30;;;;;;;;;;5094608;28;20202;-78
2021/01/08 02:16:44;;;;;;;3.27;2.23;;;;;;;;;;5103296;28;20229;-78
2021/01/08 02:19:15;;;;;;;2.83;2.03;;;;;;;;;;5082084;28;20218;-77
2021/01/08 02:21:45;;;;;;;0.30;0.30;;;;;;;;;;5103170;28;20389;-78
2021/01/08 02:24:16;;;;;;;0.30;0.30;;;;;;;;;;5102188;28;20338;-78
2021/01/08 02:26:43;;;;;;;4.57;3.40;;;;;;;;;;5103121;28;20467;-78
2021/01/08 02:29:10;;;;;;;0.30;0.30;;;;;;;;;;5084967;28;20271;-78
2021/01/08 02:31:37;;;;;;;0.60;0.60;;;;;;;;;;5084601;28;20237;-78
2021/01/08 02:34:04;;;;;;;0.30;0.30;;;;;;;;;;5083106;28;20270;-78
2021/01/08 02:36:31;;;;;;;0.30;0.30;;;;;;;;;;5081852;28;20210;-78
2021/01/08 02:38:58;;;;;;;0.20;0.20;;;;;;;;;;5086067;28;20461;-78
2021/01/08 02:41:25;;;;;;;0.20;0.20;;;;;;;;;;5081777;28;20286;-77
2021/01/08 02:43:53;;;;;;;0.20;0.20;;;;;;;;;;5103822;28;20482;-78
2021/01/08 02:46:19;;;;;;;0.30;0.30;;;;;;;;;;5097155;28;20288;-78
2021/01/08 02:48:45;;;;;;;0.30;0.30;;;;;;;;;;5087161;28;20195;-78
2021/01/08 02:51:12;;;;;;;0.30;0.30;;;;;;;;;;5080735;28;20365;-78
2021/01/08 02:53:39;;;;;;;0.40;0.40;;;;;;;;;;5097248;28;20533;-78
2021/01/08 02:56:07;;;;;;;1.47;1.47;;;;;;;;;;5074993;28;20231;-78
2021/01/08 02:58:35;;;;;;;0.20;0.20;;;;;;;;;;5097836;28;20218;-77
2021/01/08 03:01:03;;;;;;;11.80;2.87;;;;;;;;;;5082165;28;20207;-78
2021/01/08 03:03:30;;;;;;;0.33;0.33;;;;;;;;;;5087856;28;20252;-78
2021/01/08 03:05:59;;;;;;;0.90;0.90;;;;;;;;;;5102535;28;20209;-78
2021/01/08 03:08:25;;;;;;;0.30;0.30;;;;;;;;;;5101511;28;20199;-78
2021/01/08 03:10:52;;;;;;;0.30;0.30;;;;;;;;;;5080279;28;20211;-78
2021/01/08 03:13:19;;;;;;;0.30;0.30;;;;;;;;;;5071822;28;20231;-78
2021/01/08 03:15:46;;;;;;;0.20;0.20;;;;;;;;;;5081256;28;20270;-78
2021/01/08 03:18:13;;;;;;;0.30;0.30;;;;;;;;;;5079854;28;20251;-78
2021/01/08 03:20:39;;;;;;;0.30;0.30;;;;;;;;;;5079463;28;20199;-77
2021/01/08 03:23:07;;;;;;;0.20;0.20;;;;;;;;;;5084067;28;20195;-78
2021/01/08 03:25:33;;;;;;;0.40;0.40;;;;;;;;;;5101638;28;20203;-77
2021/01/08 03:27:59;;;;;;;0.27;0.27;;;;;;;;;;5087961;28;20226;-77
2021/01/08 03:30:26;;;;;;;0.43;0.43;;;;;;;;;;5071947;28;20514;-77
2021/01/08 03:32:52;;;;;;;0.30;0.30;;;;;;;;;;5100379;28;20207;-78
2021/01/08 03:35:19;;;;;;;0.30;0.30;;;;;;;;;;5096604;28;20225;-77
2021/01/08 03:37:45;;;;;;;0.30;0.30;;;;;;;;;;5081195;28;20254;-77
2021/01/08 03:40:12;;;;;;;0.63;0.63;;;;;;;;;;5100291;28;20264;-77
2021/01/08 03:42:39;;;;;;;0.27;0.27;;;;;;;;;;5073874;28;20203;-77
2021/01/08 03:45:06;;;;;;;2.47;2.37;;;;;;;;;;5079844;28;20219;-77
2021/01/08 03:47:32;;;;;;;0.30;0.30;;;;;;;;;;5084306;28;20233;-77
2021/01/08 03:49:58;;;;;;;0.53;0.53;;;;;;;;;;5097257;28;20226;-77
2021/01/08 03:52:26;;;;;;;0.30;0.30;;;;;;;;;;5088241;28;20206;-77
2021/01/08 03:54:52;;;;;;;0.20;0.20;;;;;;;;;;5100596;28;20202;-77
2021/01/08 03:57:18;;;;;;;0.30;0.30;;;;;;;;;;5088052;28;20198;-77
2021/01/08 03:59:45;;;;;;;0.20;0.20;;;;;;;;;;5085130;28;20455;-77
2021/01/08 04:02:11;;;;;;;0.30;0.30;;;;;;;;;;5069449;28;20201;-77
2021/01/08 04:04:38;;;;;;;8.00;5.20;;;;;;;;;;5072823;28;20210;-77
2021/01/08 04:07:05;;;;;;;0.30;0.30;;;;;;;;;;5096753;28;20198;-77
2021/01/08 04:09:32;;;;;;;0.30;0.30;;;;;;;;;;5082134;28;20194;-77
2021/01/08 04:11:59;;;;;;;0.30;0.30;;;;;;;;;;5077276;28;20283;-77
2021/01/08 04:14:25;;;;;;;2.07;2.00;;;;;;;;;;5080881;28;20299;-78
2021/01/08 04:16:52;;;;;;;0.30;0.30;;;;;;;;;;5078765;28;20503;-77
2021/01/08 04:19:18;;;;;;;0.30;0.30;;;;;;;;;;5078003;28;20270;-78
2021/01/08 04:21:46;;;;;;;0.30;0.30;;;;;;;;;;5073329;28;20202;-77
2021/01/08 04:24:13;;;;;;;1.07;1.07;;;;;;;;;;5082746;28;20270;-78
2021/01/08 04:26:41;;;;;;;0.30;0.30;;;;;;;;;;5079344;28;20210;-77
2021/01/08 04:29:07;;;;;;;1.80;1.67;;;;;;;;;;5080952;28;20309;-78
2021/01/08 04:31:34;;;;;;;0.20;0.20;;;;;;;;;;5100236;28;20380;-77
2021/01/08 04:34:00;;;;;;;0.63;0.63;;;;;;;;;;5079698;28;20495;-77
2021/01/08 04:36:27;;;;;;;0.30;0.30;;;;;;;;;;5099654;28;20213;-78
2021/01/08 04:38:53;;;;;;;0.23;0.23;;;;;;;;;;5081230;28;20218;-77
2021/01/08 04:41:20;;;;;;;0.30;0.30;;;;;;;;;;5099528;28;20217;-77
2021/01/08 04:43:47;;;;;;;0.30;0.30;;;;;;;;;;5075101;28;20511;-78
2021/01/08 04:46:16;;;;;;;0.30;0.30;;;;;;;;;;5072167;28;20399;-77
2021/01/08 04:48:42;;;;;;;0.27;0.27;;;;;;;;;;5093983;28;20482;-77
2021/01/08 04:51:10;;;;;;;1.20;1.20;;;;;;;;;;5100578;28;20203;-77
2021/01/08 04:53:37;;;;;;;0.30;0.30;;;;;;;;;;5097944;28;20202;-77
2021/01/08 04:56:05;;;;;;;0.20;0.20;;;;;;;;;;5081997;28;20205;-77
2021/01/08 04:58:32;;;;;;;0.30;0.30;;;;;;;;;;5086907;28;20237;-77
2021/01/08 05:01:01;;;;;;;0.20;0.20;;;;;;;;;;5078291;28;20232;-77
2021/01/08 05:03:28;;;;;;;0.30;0.30;;;;;;;;;;5082081;28;20216;-76
2021/01/08 05:05:54;;;;;;;0.30;0.30;;;;;;;;;;5081773;28;20201;-77
2021/01/08 05:08:21;;;;;;;0.30;0.30;;;;;;;;;;5082965;28;20198;-77
2021/01/08 05:10:47;;;;;;;0.20;0.20;;;;;;;;;;5078854;28;20490;-77
2021/01/08 05:13:13;;;;;;;0.20;0.20;;;;;;;;;;5096249;28;20209;-77
2021/01/08 05:15:40;;;;;;;0.20;0.20;;;;;;;;;;5081815;28;20213;-77
2021/01/08 05:18:08;;;;;;;0.20;0.20;;;;;;;;;;5093755;28;20228;-77
2021/01/08 05:20:34;;;;;;;0.30;0.30;;;;;;;;;;5067427;28;20278;-77
2021/01/08 05:23:01;;;;;;;0.30;0.30;;;;;;;;;;5068316;28;20190;-77
2021/01/08 05:25:28;;;;;;;0.40;0.40;;;;;;;;;;5078502;28;20345;-77
2021/01/08 05:27:54;;;;;;;1.07;1.07;;;;;;;;;;5095473;28;20237;-77
2021/01/08 05:30:23;;;;;;;0.27;0.27;;;;;;;;;;5100189;28;20215;-77
2021/01/08 05:32:56;;;;;;;0.30;0.30;;;;;;;;;;5083930;28;20203;-77
2021/01/08 05:35:23;;;;;;;0.33;0.33;;;;;;;;;;5088677;28;20230;-78
2021/01/08 05:37:52;;;;;;;0.60;0.60;;;;;;;;;;5091414;28;20295;-77
2021/01/08 05:40:23;;;;;;;0.20;0.20;;;;;;;;;;5093494;28;20513;-77
2021/01/08 05:42:52;;;;;;;0.30;0.30;;;;;;;;;;5087063;28;20206;-77
2021/01/08 05:45:19;;;;;;;0.83;0.83;;;;;;;;;;5078830;28;20255;-78
2021/01/08 05:47:45;;;;;;;0.20;0.20;;;;;;;;;;5072775;28;20199;-77
2021/01/08 05:50:12;;;;;;;0.27;0.27;;;;;;;;;;5103848;28;20241;-77
2021/01/08 05:52:42;;;;;;;0.27;0.27;;;;;;;;;;5102031;28;20202;-77
2021/01/08 05:55:12;;;;;;;0.30;0.30;;;;;;;;;;5085836;28;20342;-77
2021/01/08 05:57:40;;;;;;;0.30;0.30;;;;;;;;;;5102563;28;20202;-77
2021/01/08 06:00:07;;;;;;;0.30;0.30;;;;;;;;;;5089391;28;20329;-77
2021/01/08 06:02:34;;;;;;;0.30;0.30;;;;;;;;;;5104779;28;20273;-77
2021/01/08 06:05:01;;;;;;;0.30;0.30;;;;;;;;;;5084477;28;20236;-77
2021/01/08 06:07:28;;;;;;;0.30;0.30;;;;;;;;;;5071125;28;20238;-77
2021/01/08 06:10:01;;;;;;;0.47;0.47;;;;;;;;;;5076092;28;20275;-77
2021/01/08 06:12:31;;;;;;;0.27;0.27;;;;;;;;;;5096872;28;20313;-77
2021/01/08 06:14:57;;;;;;;0.30;0.30;;;;;;;;;;5100383;28;20230;-77
2021/01/08 06:17:23;;;;;;;0.30;0.30;;;;;;;;;;5104788;28;20241;-77
2021/01/08 06:19:58;;;;;;;0.30;0.30;;;;;;;;;;5103069;28;20238;-77
2021/01/08 06:22:26;;;;;;;0.30;0.30;;;;;;;;;;5103414;28;20198;-77
2021/01/08 06:24:53;;;;;;;0.20;0.20;;;;;;;;;;5083024;28;20230;-77
2021/01/08 06:27:25;;;;;;;4.63;4.53;;;;;;;;;;5102062;28;20274;-77
2021/01/08 06:29:55;;;;;;;0.30;0.30;;;;;;;;;;5102666;28;20237;-77
2021/01/08 06:32:28;;;;;;;0.30;0.30;;;;;;;;;;5103714;28;20279;-77
2021/01/08 06:34:54;;;;;;;0.30;0.30;;;;;;;;;;5087794;28;20401;-77
2021/01/08 06:37:24;;;;;;;0.30;0.30;;;;;;;;;;5074995;28;20449;-77
2021/01/08 06:39:56;;;;;;;0.23;0.23;;;;;;;;;;5097115;28;20254;-77
2021/01/08 06:42:27;;;;;;;0.20;0.20;;;;;;;;;;5102844;28;20230;-77
2021/01/08 06:44:54;;;;;;;0.30;0.30;;;;;;;;;;5102065;28;20496;-78
2021/01/08 06:47:21;;;;;;;0.20;0.20;;;;;;;;;;5084402;28;20489;-77
2021/01/08 06:49:51;;;;;;;0.30;0.30;;;;;;;;;;5084977;28;20240;-77
2021/01/08 06:52:17;;;;;;;0.27;0.27;;;;;;;;;;5103625;28;20203;-77
2021/01/08 06:54:44;;;;;;;0.30;0.30;;;;;;;;;;5101775;28;20210;-77
2021/01/08 06:57:16;;;;;;;0.57;0.57;;;;;;;;;;5102139;28;20245;-76
2021/01/08 06:59:46;;;;;;;0.30;0.30;;;;;;;;;;5089591;28;20251;-77
2021/01/08 07:02:14;;;;;;;0.30;0.30;;;;;;;;;;5097177;28;20230;-78
2021/01/08 07:04:40;;;;;;;0.30;0.30;;;;;;;;;;5095747;28;20230;-77
2021/01/08 07:07:12;;;;;;;0.23;0.23;;;;;;;;;;5082307;28;20219;-77
2021/01/08 07:09:38;;;;;;;0.30;0.30;;;;;;;;;;5097095;28;20245;-77
2021/01/08 07:12:06;;;;;;;0.30;0.30;;;;;;;;;;5088576;28;20200;-77
2021/01/08 07:14:33;;;;;;;0.93;0.93;;;;;;;;;;5091278;28;20199;-79
2021/01/08 07:17:01;;;;;;;0.30;0.30;;;;;;;;;;5080359;28;20245;-77
2021/01/08 07:19:28;;;;;;;0.30;0.30;;;;;;;;;;5079848;28;20245;-72
2021/01/08 07:21:55;;;;;;;0.30;0.30;;;;;;;;;;5102539;28;20206;-75
2021/01/08 07:24:24;;;;;;;0.30;0.30;;;;;;;;;;5091849;28;20388;-76
2021/01/08 07:26:51;;;;;;;0.30;0.30;;;;;;;;;;5092299;28;20520;-74
2021/01/08 07:29:25;;;;;;;0.23;0.23;;;;;;;;;;5077025;28;20203;-69
2021/01/08 07:31:52;;;;;;;1.07;1.07;;;;;;;;;;5093020;28;20231;-73
2021/01/08 07:34:32;;;;;;;0.47;0.47;;;;;;;;;;5077383;28;20205;-72
2021/01/08 07:36:59;;;;;;;0.30;0.30;;;;;;;;;;5084800;28;20237;-72
2021/01/08 07:39:38;;;;;;;0.67;0.67;;;;;;;;;;5090573;28;20264;-73
2021/01/08 07:42:19;;;;;;;0.40;0.40;;;;;;;;;;5081781;28;20457;-73
2021/01/08 07:44:47;;;;;;;0.30;0.30;;;;;;;;;;5096843;28;20251;-73
2021/01/08 07:47:23;;;;;;;0.93;0.93;;;;;;;;;;5089749;28;20274;-72
2021/01/08 07:50:07;;;;;;;0.30;0.30;;;;;;;;;;5079438;28;20220;-73
2021/01/08 07:52:37;;;;;;;0.30;0.30;;;;;;;;;;5093905;28;20198;-72
2021/01/08 07:55:04;;;;;;;0.30;0.30;;;;;;;;;;5092268;28;20240;-72
2021/01/08 07:57:31;;;;;;;0.30;0.30;;;;;;;;;;5080646;28;20223;-73
2021/01/08 07:59:57;;;;;;;0.20;0.20;;;;;;;;;;5080586;28;20233;-72
2021/01/08 08:02:24;;;;;;;0.33;0.33;;;;;;;;;;5074561;28;20195;-71
2021/01/08 08:04:51;;;;;;;0.30;0.30;;;;;;;;;;5078128;28;20281;-71
2021/01/08 08:07:20;;;;;;;0.30;0.30;;;;;;;;;;5079368;28;20206;-71
2021/01/08 08:09:54;;;;;;;0.30;0.30;;;;;;;;;;5101580;28;20209;-73
2021/01/08 08:12:21;;;;;;;0.30;0.30;;;;;;;;;;5099786;28;20205;-72
2021/01/08 08:14:58;;;;;;;2.77;2.30;;;;;;;;;;5101503;28;20249;-71
2021/01/08 08:17:23;;;;;;;0.77;0.77;;;;;;;;;;5094889;28;20271;-70
2021/01/08 08:19:50;;;;;;;0.30;0.30;;;;;;;;;;5086876;28;20336;-71
2021/01/08 08:22:17;;;;;;;0.27;0.27;;;;;;;;;;5077982;28;20549;-71
2021/01/08 08:24:44;;;;;;;3.20;2.97;;;;;;;;;;5077451;28;20276;-71
2021/01/08 08:27:15;;;;;;;0.20;0.20;;;;;;;;;;5068111;28;20536;-71
2021/01/08 08:29:42;;;;;;;0.23;0.23;;;;;;;;;;5099170;28;20194;-72
2021/01/08 08:32:08;;;;;;;0.20;0.20;;;;;;;;;;5078720;28;20524;-70
2021/01/08 08:34:35;;;;;;;1.43;1.43;;;;;;;;;;5071352;28;20199;-71
2021/01/08 08:37:06;;;;;;;2.83;2.73;;;;;;;;;;5080941;28;20289;-71
2021/01/08 08:39:32;;;;;;;0.20;0.20;;;;;;;;;;5077108;28;20250;-70
2021/01/08 08:42:00;;;;;;;0.20;0.20;;;;;;;;;;5085854;28;20205;-70
2021/01/08 08:44:27;;;;;;;0.20;0.20;;;;;;;;;;5080792;28;20225;-70
2021/01/08 08:46:54;;;;;;;0.30;0.30;;;;;;;;;;5078518;28;20554;-70
2021/01/08 08:49:21;;;;;;;0.20;0.20;;;;;;;;;;5100566;28;20406;-70
2021/01/08 08:51:49;;;;;;;0.30;0.30;;;;;;;;;;5080335;28;20504;-71
2021/01/08 08:54:15;;;;;;;0.23;0.23;;;;;;;;;;5097231;28;20206;-73
2021/01/08 08:56:48;;;;;;;0.50;0.50;;;;;;;;;;5068282;28;20475;-71
2021/01/08 08:59:16;;;;;;;0.20;0.20;;;;;;;;;;5099194;28;20233;-71
2021/01/08 09:01:43;;;;;;;2.13;2.03;;;;;;;;;;5080387;28;20337;-72
2021/01/08 09:04:10;;;;;;;0.20;0.20;;;;;;;;;;5071345;28;20206;-72
2021/01/08 09:06:38;;;;;;;0.53;0.53;;;;;;;;;;5087309;28;20195;-72
2021/01/08 09:12:12;;;;;;;0.30;0.30;;;;;;;;;;5084301;28;20203;-73
2021/01/08 09:14:41;;;;;;;0.27;0.27;;;;;;;;;;5089229;28;20203;-72
2021/01/08 09:17:09;;;;;;;0.20;0.20;;;;;;;;;;5072045;28;20535;-72
2021/01/08 09:19:42;;;;;;;0.70;0.70;;;;;;;;;;5087122;28;20215;-71
2021/01/08 09:22:10;;;;;;;0.20;0.20;;;;;;;;;;5084552;28;20494;-72
2021/01/08 09:24:38;;;;;;;0.20;0.20;;;;;;;;;;5081950;28;20221;-71
2021/01/08 09:27:05;;;;;;;0.97;0.97;;;;;;;;;;5087609;28;20451;-71
2021/01/08 09:29:32;;;;;;;0.20;0.20;;;;;;;;;;5081221;28;20240;-71
2021/01/08 09:32:00;;;;;;;0.20;0.20;;;;;;;;;;5090699;28;20199;-72
2021/01/08 09:34:27;;;;;;;0.20;0.20;;;;;;;;;;5093956;28;20202;-71
2021/01/08 09:36:55;;;;;;;0.30;0.30;;;;;;;;;;5072242;28;20513;-72
2021/01/08 09:39:22;;;;;;;0.30;0.30;;;;;;;;;;5096092;28;20550;-70
2021/01/08 09:41:54;;;;;;;0.20;0.20;;;;;;;;;;5100089;28;20215;-71
2021/01/08 09:44:29;;;;;;;0.20;0.20;;;;;;;;;;5103307;28;20248;-71
2021/01/08 09:46:56;;;;;;;0.20;0.20;;;;;;;;;;5102164;28;20236;-74
2021/01/08 09:49:24;;;;;;;0.20;0.20;;;;;;;;;;5096187;28;20213;-72
2021/01/08 09:52:00;;;;;;;1.83;0.97;;;;;;;;;;5105441;28;20203;-70
2021/01/08 09:54:38;;;;;;;1.50;1.27;;;;;;;;;;5095115;28;20209;-71
2021/01/08 09:57:05;;;;;;;0.47;0.47;;;;;;;;;;5093699;28;20198;-72
2021/01/08 09:59:32;;;;;;;7.37;7.00;;;;;;;;;;5082678;28;20226;-71
2021/01/08 10:02:00;;;;;;;0.60;0.60;;;;;;;;;;5096097;28;20406;-73
2021/01/08 10:04:29;;;;;;;0.30;0.30;;;;;;;;;;5084782;28;20202;-71
2021/01/08 10:06:56;;;;;;;0.23;0.23;;;;;;;;;;5079514;28;20213;-71
2021/01/08 10:09:23;;;;;;;0.20;0.20;;;;;;;;;;5073489;28;20202;-72
2021/01/08 10:11:57;;;;;;;0.30;0.30;;;;;;;;;;5089062;28;20369;-71
2021/01/08 10:14:28;;;;;;;0.30;0.30;;;;;;;;;;5096538;28;20394;-69
2021/01/08 10:16:55;;;;;;;0.20;0.20;;;;;;;;;;5103261;28;20511;-70
2021/01/08 10:19:22;;;;;;;1.97;1.80;;;;;;;;;;5091396;28;20219;-69
2021/01/08 10:21:49;;;;;;;3.17;2.90;;;;;;;;;;5083038;28;20393;-69
2021/01/08 10:24:24;;;;;;;0.20;0.20;;;;;;;;;;5087112;28;20498;-69
2021/01/08 10:26:50;;;;;;;0.20;0.20;;;;;;;;;;5086877;28;20204;-69
2021/01/08 10:29:17;;;;;;;0.30;0.30;;;;;;;;;;5081123;28;20197;-69
2021/01/08 10:31:47;;;;;;;0.40;0.40;;;;;;;;;;5075731;28;20340;-68
2021/01/08 10:34:13;;;;;;;0.30;0.30;;;;;;;;;;5083299;28;20505;-71
2021/01/08 10:36:40;;;;;;;0.30;0.30;;;;;;;;;;5081197;28;20325;-71
2021/01/08 10:39:07;;;;;;;4.17;2.73;;;;;;;;;;5076669;28;20218;-72
2021/01/08 10:41:34;;;;;;;0.30;0.30;;;;;;;;;;5076178;28;20490;-72
2021/01/08 10:44:01;;;;;;;0.83;0.83;;;;;;;;;;5080996;28;20236;-72
2021/01/08 10:46:27;;;;;;;0.30;0.30;;;;;;;;;;5097331;28;20206;-72
2021/01/08 10:48:55;;;;;;;0.23;0.23;;;;;;;;;;5079257;28;20218;-72
2021/01/08 10:51:27;;;;;;;0.40;0.40;;;;;;;;;;5075185;28;20335;-72
2021/01/08 10:53:53;;;;;;;0.30;0.30;;;;;;;;;;5091808;28;20293;-71
2021/01/08 10:56:27;;;;;;;0.30;0.30;;;;;;;;;;5093574;28;20203;-72
2021/01/08 10:58:53;;;;;;;0.83;0.83;;;;;;;;;;5098463;28;20222;-72
2021/01/08 11:01:19;;;;;;;0.20;0.20;;;;;;;;;;5097654;28;20202;-72
2021/01/08 11:03:46;;;;;;;0.20;0.20;;;;;;;;;;5075145;28;20195;-71
2021/01/08 11:06:16;;;;;;;0.83;0.83;;;;;;;;;;5081627;28;20194;-71
2021/01/08 11:08:42;;;;;;;0.20;0.20;;;;;;;;;;5092586;28;20194;-72
2021/01/08 11:11:09;;;;;;;0.30;0.30;;;;;;;;;;5073068;28;20190;-70
2021/01/08 11:13:36;;;;;;;0.30;0.30;;;;;;;;;;5080361;28;20494;-71
2021/01/08 11:16:03;;;;;;;0.20;0.20;;;;;;;;;;5077589;28;20199;-72
2021/01/08 11:18:30;;;;;;;0.30;0.30;;;;;;;;;;5077744;28;20214;-71
2021/01/08 11:20:56;;;;;;;0.20;0.20;;;;;;;;;;5069759;28;20283;-72
2021/01/08 11:23:23;;;;;;;0.20;0.20;;;;;;;;;;5078109;28;20207;-72
2021/01/08 11:25:49;;;;;;;0.20;0.20;;;;;;;;;;5087212;28;20198;-72
2021/01/08 11:28:16;;;;;;;0.20;0.20;;;;;;;;;;5091497;28;20240;-72
2021/01/08 11:30:43;;;;;;;0.20;0.20;;;;;;;;;;5077642;28;20203;-71
2021/01/08 11:33:10;;;;;;;0.20;0.20;;;;;;;;;;5081375;28;20226;-71
2021/01/08 11:35:36;;;;;;;0.20;0.20;;;;;;;;;;5072884;28;20262;-72
2021/01/08 11:38:03;;;;;;;0.30;0.30;;;;;;;;;;5073930;28;20544;-73
2021/01/08 11:40:29;;;;;;;0.20;0.20;;;;;;;;;;5088510;28;20210;-73
2021/01/08 11:42:56;;;;;;;0.20;0.20;;;;;;;;;;5077686;28;20491;-73
2021/01/08 11:45:22;;;;;;;0.30;0.30;;;;;;;;;;5073109;28;20234;-73
2021/01/08 11:47:49;;;;;;;0.93;0.93;;;;;;;;;;5091360;28;20195;-73
2021/01/08 11:50:16;;;;;;;0.23;0.23;;;;;;;;;;5071419;28;20206;-71
2021/01/08 11:52:43;;;;;;;0.30;0.30;;;;;;;;;;5075602;28;20205;-72
2021/01/08 11:55:09;;;;;;;0.50;0.50;;;;;;;;;;5069725;28;20194;-72
2021/01/08 11:57:36;;;;;;;0.30;0.30;;;;;;;;;;5087699;28;20203;-71
2021/01/08 12:00:04;;;;;;;0.30;0.30;;;;;;;;;;5083148;28;20264;-71
2021/01/08 12:02:31;;;;;;;0.20;0.20;;;;;;;;;;5074586;28;20494;-70
2021/01/08 12:04:59;;;;;;;0.20;0.20;;;;;;;;;;5078049;28;20530;-74
2021/01/08 12:07:25;;;;;;;0.20;0.20;;;;;;;;;;5093736;28;20203;-74
2021/01/08 12:09:52;;;;;;;0.23;0.23;;;;;;;;;;5071814;28;20194;-73
2021/01/08 12:12:19;;;;;;;0.30;0.30;;;;;;;;;;5082745;28;20203;-74
2021/01/08 12:14:46;;;;;;;0.20;0.20;;;;;;;;;;5073428;28;20207;-74
2021/01/08 12:17:12;;;;;;;0.20;0.20;;;;;;;;;;5078442;28;20489;-73
2021/01/08 12:19:41;;;;;;;4.13;2.67;;;;;;;;;;5079538;28;20238;-73
2021/01/08 12:22:10;;;;;;;0.20;0.20;;;;;;;;;;5091454;28;20239;-73
2021/01/08 12:24:37;;;;;;;0.20;0.20;;;;;;;;;;5088193;28;20227;-73
2021/01/08 12:27:04;;;;;;;0.30;0.30;;;;;;;;;;5081572;28;20213;-73
2021/01/08 12:29:33;;;;;;;0.60;0.60;;;;;;;;;;5080839;28;20207;-71
2021/01/08 12:32:00;;;;;;;0.20;0.20;;;;;;;;;;5086451;28;20475;-74
2021/01/08 12:34:27;;;;;;;0.20;0.20;;;;;;;;;;5092839;28;20198;-74
2021/01/08 12:36:53;;;;;;;0.30;0.30;;;;;;;;;;5081571;28;20194;-73
2021/01/08 12:39:21;;;;;;;0.53;0.53;;;;;;;;;;5075899;28;20211;-73
2021/01/08 12:41:47;;;;;;;0.30;0.30;;;;;;;;;;5082131;28;20244;-74
2021/01/08 12:44:14;;;;;;;0.20;0.20;;;;;;;;;;5072483;28;20195;-74
2021/01/08 12:46:41;;;;;;;0.20;0.20;;;;;;;;;;5074863;28;20213;-71
2021/01/08 12:49:08;;;;;;;0.20;0.20;;;;;;;;;;5083293;28;20335;-74
2021/01/08 12:51:34;;;;;;;0.30;0.30;;;;;;;;;;5081945;28;20194;-74
2021/01/08 12:54:01;;;;;;;0.20;0.20;;;;;;;;;;5090179;28;20240;-75
2021/01/08 12:56:30;;;;;;;0.20;0.20;;;;;;;;;;5074591;28;20278;-74
2021/01/08 12:58:57;;;;;;;0.20;0.20;;;;;;;;;;5077249;28;20269;-74
2021/01/08 13:01:23;;;;;;;0.20;0.20;;;;;;;;;;5082639;28;20270;-73
2021/01/08 13:03:50;;;;;;;0.30;0.30;;;;;;;;;;5077864;28;20199;-73
2021/01/08 13:06:23;;;;;;;0.20;0.20;;;;;;;;;;5081814;28;20202;-73
2021/01/08 13:08:50;;;;;;;0.20;0.20;;;;;;;;;;5069942;28;20432;-74
2021/01/08 13:11:16;;;;;;;0.20;0.20;;;;;;;;;;5100710;28;20198;-74
2021/01/08 13:13:44;;;;;;;0.30;0.30;;;;;;;;;;5099735;28;20202;-73
2021/01/08 13:16:10;;;;;;;0.80;0.80;;;;;;;;;;5097148;28;20288;-75
2021/01/08 13:18:37;;;;;;;0.30;0.30;;;;;;;;;;5076751;28;20226;-74
2021/01/08 13:21:04;;;;;;;0.20;0.20;;;;;;;;;;5089017;28;20263;-74
2021/01/08 13:23:31;;;;;;;0.27;0.27;;;;;;;;;;5074020;28;20206;-75
2021/01/08 13:25:57;;;;;;;0.20;0.20;;;;;;;;;;5073755;28;20285;-75
2021/01/08 13:28:23;;;;;;;0.30;0.30;;;;;;;;;;5091549;28;20274;-72
2021/01/08 13:30:51;;;;;;;0.20;0.20;;;;;;;;;;5086772;28;20244;-74
2021/01/08 13:33:18;;;;;;;1.47;1.37;;;;;;;;;;5075746;28;20195;-74
2021/01/08 13:35:45;;;;;;;0.23;0.23;;;;;;;;;;5074691;28;20491;-74
2021/01/08 13:38:11;;;;;;;0.30;0.30;;;;;;;;;;5070736;28;20195;-75
2021/01/08 13:40:38;;;;;;;0.40;0.40;;;;;;;;;;5095902;28;20237;-74
2021/01/08 13:43:04;;;;;;;0.70;0.70;;;;;;;;;;5098484;28;20202;-76
2021/01/08 13:45:31;;;;;;;0.30;0.30;;;;;;;;;;5074827;28;20514;-77
2021/01/08 13:47:58;;;;;;;0.30;0.30;;;;;;;;;;5071455;28;20198;-75
2021/01/08 13:50:24;;;;;;;0.20;0.20;;;;;;;;;;5079696;28;20202;-73
2021/01/08 13:52:51;;;;;;;0.30;0.30;;;;;;;;;;5097250;28;20205;-73
2021/01/08 13:55:18;;;;;;;0.20;0.20;;;;;;;;;;5081235;28;20243;-72
2021/01/08 13:57:44;;;;;;;0.20;0.20;;;;;;;;;;5070911;28;20199;-72
2021/01/08 14:00:11;;;;;;;0.20;0.20;;;;;;;;;;5069597;28;20518;-73
2021/01/08 14:02:38;;;;;;;1.40;1.30;;;;;;;;;;5074101;28;20245;-73
2021/01/08 14:05:06;;;;;;;0.20;0.20;;;;;;;;;;5078603;28;20510;-74
2021/01/08 14:07:34;;;;;;;0.23;0.23;;;;;;;;;;5073672;28;20490;-73
2021/01/08 14:10:01;;;;;;;0.20;0.20;;;;;;;;;;5074321;28;20206;-74
2021/01/08 14:12:27;;;;;;;0.20;0.20;;;;;;;;;;5073673;28;20312;-73
2021/01/08 14:14:54;;;;;;;0.20;0.20;;;;;;;;;;5075715;28;20199;-73
2021/01/08 14:17:21;;;;;;;0.30;0.30;;;;;;;;;;5078630;28;20195;-73
2021/01/08 14:19:47;;;;;;;0.30;0.30;;;;;;;;;;5094707;28;20242;-74
2021/01/08 14:22:15;;;;;;;0.30;0.30;;;;;;;;;;5083708;28;20195;-74
2021/01/08 14:24:41;;;;;;;0.40;0.40;;;;;;;;;;5080694;28;20210;-74
2021/01/08 14:27:08;;;;;;;0.30;0.30;;;;;;;;;;5098369;28;20240;-74
2021/01/08 14:29:34;;;;;;;0.20;0.20;;;;;;;;;;5079069;28;20505;-74
2021/01/08 14:32:01;;;;;;;0.30;0.30;;;;;;;;;;5081703;28;20199;-75
2021/01/08 14:34:28;;;;;;;0.20;0.20;;;;;;;;;;5080863;28;20519;-72
2021/01/08 14:36:58;;;;;;;0.27;0.27;;;;;;;;;;5081038;28;20199;-72
2021/01/08 14:39:26;;;;;;;0.30;0.30;;;;;;;;;;5100395;28;20529;-72
2021/01/08 14:41:53;;;;;;;0.50;0.50;;;;;;;;;;5082192;28;20207;-74
2021/01/08 14:44:20;;;;;;;0.30;0.30;;;;;;;;;;5083820;28;20222;-71
2021/01/08 14:46:46;;;;;;;6.90;6.33;;;;;;;;;;5081885;28;20195;-70
2021/01/08 14:49:12;;;;;;;0.50;0.50;;;;;;;;;;5091207;28;20195;-71